createdAt,value
2018-06-02T00:00:29.826Z,99.90
2018-06-02T00:02:57.602Z,99.90
2018-06-02T00:05:25.300Z,99.90
2018-06-02T00:07:52.951Z,99.90
2018-06-02T00:10:20.859Z,99.90
2018-06-02T00:12:48.532Z,99.90
2018-06-02T00:15:16.176Z,99.90
2018-06-02T00:17:43.889Z,99.90
2018-06-02T00:20:11.552Z,99.90
2018-06-02T00:22:39.404Z,99.90
2018-06-02T00:25:07.108Z,99.90
2018-06-02T00:27:34.954Z,99.90
2018-06-02T00:30:02.732Z,99.90
2018-06-02T00:32:30.529Z,99.90
2018-06-02T00:34:58.205Z,99.90
2018-06-02T00:37:25.985Z,99.90
2018-06-02T00:39:53.735Z,99.90
2018-06-02T00:42:21.510Z,99.90
2018-06-02T00:44:49.184Z,99.90
2018-06-02T00:47:16.962Z,99.90
2018-06-02T00:49:44.760Z,99.90
2018-06-02T00:52:12.616Z,99.90
2018-06-02T00:54:52.271Z,99.90
2018-06-02T00:57:20.150Z,99.90
2018-06-02T00:59:47.926Z,99.90
2018-06-02T01:02:15.623Z,99.90
2018-06-02T01:04:43.487Z,99.90
2018-06-02T01:07:11.285Z,99.90
2018-06-02T01:09:39.282Z,99.90
2018-06-02T01:12:08.147Z,99.90
2018-06-02T01:14:35.921Z,99.90
2018-06-02T01:17:03.690Z,99.90
2018-06-02T01:19:31.488Z,99.90
2018-06-02T01:21:59.112Z,99.90
2018-06-02T01:24:26.917Z,99.90
2018-06-02T01:26:54.613Z,99.90
2018-06-02T01:29:22.389Z,99.90
2018-06-02T01:31:50.164Z,99.90
2018-06-02T01:34:17.921Z,99.90
2018-06-02T01:36:45.697Z,99.90
2018-06-02T01:39:13.617Z,99.90
2018-06-02T01:41:41.352Z,99.90
2018-06-02T01:44:09.242Z,99.90
2018-06-02T01:46:37.007Z,99.90
2018-06-02T01:49:04.884Z,99.90
2018-06-02T01:51:32.512Z,99.90
2018-06-02T01:54:01.084Z,99.90
2018-06-02T01:56:28.752Z,99.90
2018-06-02T01:58:56.501Z,99.90
2018-06-02T02:01:24.173Z,99.90
2018-06-02T02:03:51.952Z,99.90
2018-06-02T02:06:19.650Z,99.90
2018-06-02T02:08:48.157Z,99.90
2018-06-02T02:11:15.929Z,99.90
2018-06-02T02:13:43.671Z,99.90
2018-06-02T02:16:11.497Z,99.90
2018-06-02T02:18:39.326Z,99.90
2018-06-02T02:21:07.210Z,99.90
2018-06-02T02:23:34.981Z,99.90
2018-06-02T02:26:02.757Z,99.90
2018-06-02T02:28:30.456Z,99.90
2018-06-02T02:30:58.228Z,99.90
2018-06-02T02:33:25.916Z,99.90
2018-06-02T02:35:53.658Z,99.90
2018-06-02T02:38:21.339Z,99.90
2018-06-02T02:40:49.029Z,99.90
2018-06-02T02:43:16.884Z,99.90
2018-06-02T02:45:44.591Z,99.90
2018-06-02T02:48:12.440Z,99.90
2018-06-02T02:50:40.220Z,99.90
2018-06-02T02:53:08.197Z,99.90
2018-06-02T02:55:36.084Z,99.90
2018-06-02T02:58:03.873Z,99.90
2018-06-02T03:00:31.517Z,99.90
2018-06-02T03:02:59.225Z,99.90
2018-06-02T03:05:26.973Z,99.90
2018-06-02T03:07:54.751Z,99.90
2018-06-02T03:10:22.396Z,99.90
2018-06-02T03:12:50.198Z,99.90
2018-06-02T03:15:17.898Z,99.90
2018-06-02T03:17:45.678Z,99.90
2018-06-02T03:20:13.634Z,99.90
2018-06-02T03:22:41.513Z,99.90
2018-06-02T03:25:09.209Z,99.90
2018-06-02T03:27:37.065Z,99.90
2018-06-02T03:30:04.845Z,99.90
2018-06-02T03:32:32.496Z,99.90
2018-06-02T03:35:00.290Z,99.90
2018-06-02T03:37:28.070Z,99.90
2018-06-02T03:39:55.760Z,99.90
2018-06-02T03:42:23.440Z,99.90
2018-06-02T03:44:51.189Z,99.90
2018-06-02T03:47:18.966Z,99.90
2018-06-02T03:49:46.746Z,99.90
2018-06-02T03:52:14.603Z,99.90
2018-06-02T03:54:42.320Z,99.90
2018-06-02T03:57:10.072Z,99.90
2018-06-02T03:59:37.950Z,99.90
2018-06-02T04:02:05.830Z,99.90
2018-06-02T04:04:33.603Z,99.90
2018-06-02T04:07:01.379Z,99.90
2018-06-02T04:09:29.077Z,99.90
2018-06-02T04:11:56.748Z,99.90
2018-06-02T04:14:24.392Z,99.90
2018-06-02T04:16:52.179Z,99.90
2018-06-02T04:19:19.955Z,99.90
2018-06-02T04:21:47.731Z,99.90
2018-06-02T04:24:15.440Z,99.90
2018-06-02T04:26:43.321Z,99.90
2018-06-02T04:29:11.085Z,99.90
2018-06-02T04:31:38.939Z,99.90
2018-06-02T04:34:06.589Z,99.90
2018-06-02T04:36:34.387Z,99.90
2018-06-02T04:39:02.062Z,99.90
2018-06-02T04:41:29.735Z,99.90
2018-06-02T04:43:57.388Z,99.90
2018-06-02T04:46:25.109Z,99.90
2018-06-02T04:48:52.740Z,99.90
2018-06-02T04:51:20.431Z,99.90
2018-06-02T04:53:48.129Z,99.90
2018-06-02T04:56:15.882Z,99.90
2018-06-02T04:58:43.693Z,99.90
2018-06-02T05:01:11.537Z,99.90
2018-06-02T05:03:39.315Z,99.90
2018-06-02T05:06:07.177Z,99.90
2018-06-02T05:08:34.969Z,99.90
2018-06-02T05:11:02.744Z,99.90
2018-06-02T05:13:30.440Z,99.90
2018-06-02T05:15:58.199Z,99.90
2018-06-02T05:18:25.896Z,99.90
2018-06-02T05:20:53.652Z,99.90
2018-06-02T05:23:21.426Z,99.90
2018-06-02T05:25:49.100Z,99.90
2018-06-02T05:28:16.768Z,99.90
2018-06-02T05:30:44.476Z,99.90
2018-06-02T05:33:12.431Z,99.90
2018-06-02T05:35:40.290Z,99.90
2018-06-02T05:38:08.016Z,99.90
2018-06-02T05:40:35.869Z,99.90
2018-06-02T05:43:03.635Z,99.90
2018-06-02T05:45:31.413Z,99.90
2018-06-02T05:47:59.212Z,99.90
2018-06-02T05:50:26.883Z,99.90
2018-06-02T05:52:54.565Z,99.90
2018-06-02T05:55:22.337Z,99.90
2018-06-02T05:57:49.984Z,99.90
2018-06-02T06:00:17.694Z,99.90
2018-06-02T06:02:45.358Z,99.90
2018-06-02T06:05:13.035Z,99.90
2018-06-02T06:07:40.885Z,99.90
2018-06-02T06:10:08.665Z,99.90
2018-06-02T06:12:36.443Z,99.90
2018-06-02T06:15:04.249Z,99.90
2018-06-02T06:17:31.886Z,99.90
2018-06-02T06:19:59.673Z,99.90
2018-06-02T06:22:27.316Z,99.90
2018-06-02T06:24:54.985Z,99.90
2018-06-02T06:27:22.790Z,99.90
2018-06-02T06:29:50.566Z,99.90
2018-06-02T06:32:18.207Z,99.90
2018-06-02T06:34:46.734Z,99.90
2018-06-02T06:37:14.531Z,99.90
2018-06-02T06:39:42.388Z,99.90
2018-06-02T06:42:10.189Z,99.90
2018-06-02T06:44:37.960Z,99.90
2018-06-02T06:47:07.537Z,99.90
2018-06-02T06:49:35.189Z,99.90
2018-06-02T06:52:03.829Z,99.90
2018-06-02T06:54:31.605Z,99.90
2018-06-02T06:56:59.304Z,99.90
2018-06-02T06:59:27.037Z,99.90
2018-06-02T07:01:54.757Z,99.90
2018-06-02T07:04:22.403Z,99.90
2018-06-02T07:06:50.182Z,99.90
2018-06-02T07:09:17.850Z,99.90
2018-06-02T07:11:45.532Z,99.90
2018-06-02T07:14:13.182Z,99.90
2018-06-02T07:16:41.041Z,99.90
2018-06-02T07:19:09.675Z,99.90
2018-06-02T07:21:37.476Z,99.90
2018-06-02T07:24:05.137Z,99.90
2018-06-02T07:26:32.900Z,99.90
2018-06-02T07:29:00.677Z,99.90
2018-06-02T07:31:28.659Z,99.90
2018-06-02T07:33:56.542Z,99.90
2018-06-02T07:36:24.181Z,99.90
2018-06-02T07:38:52.091Z,99.90
2018-06-02T07:41:19.867Z,99.90
2018-06-02T07:43:47.569Z,99.90
2018-06-02T07:46:15.240Z,99.90
2018-06-02T07:48:43.093Z,99.90
2018-06-02T07:51:10.870Z,99.90
2018-06-02T07:53:38.954Z,99.90
2018-06-02T07:56:06.938Z,99.90
2018-06-02T07:58:34.710Z,99.90
2018-06-02T08:01:02.388Z,99.90
2018-06-02T08:03:30.168Z,99.90
2018-06-02T08:05:57.976Z,99.90
2018-06-02T08:08:26.146Z,99.90
2018-06-02T08:10:54.644Z,99.90
2018-06-02T08:13:22.270Z,99.90
2018-06-02T08:15:49.941Z,99.90
2018-06-02T08:18:17.735Z,99.90
2018-06-02T08:20:45.440Z,99.40
2018-06-02T08:23:13.213Z,99.80
2018-06-02T08:25:41.069Z,99.00
2018-06-02T08:28:08.873Z,98.00
2018-06-02T08:30:37.764Z,98.50
2018-06-02T08:33:05.424Z,98.70
2018-06-02T08:35:33.196Z,97.90
2018-06-02T08:38:00.892Z,99.10
2018-06-02T08:40:28.668Z,99.70
2018-06-02T08:42:56.317Z,99.90
2018-06-02T08:45:24.307Z,98.10
2018-06-02T08:47:52.001Z,98.40
2018-06-02T08:50:19.859Z,98.00
2018-06-02T08:52:47.633Z,98.10
2018-06-02T08:55:15.409Z,97.70
2018-06-02T08:57:43.217Z,97.80
2018-06-02T09:00:10.989Z,97.70
2018-06-02T09:02:38.661Z,97.10
2018-06-02T09:05:06.546Z,96.80
2018-06-02T09:07:34.183Z,97.70
2018-06-02T09:10:01.862Z,98.10
2018-06-02T09:12:29.558Z,98.30
2018-06-02T09:14:57.238Z,97.60
2018-06-02T09:17:24.987Z,98.10
2018-06-02T09:19:52.686Z,98.80
2018-06-02T09:22:20.461Z,98.30
2018-06-02T09:24:48.100Z,97.90
2018-06-02T09:27:15.818Z,97.90
2018-06-02T09:29:43.563Z,96.40
2018-06-02T09:32:11.440Z,96.40
2018-06-02T09:34:39.139Z,95.40
2018-06-02T09:37:06.994Z,96.00
2018-06-02T09:39:34.688Z,95.70
2018-06-02T09:42:02.544Z,97.00
2018-06-02T09:44:30.320Z,96.50
2018-06-02T09:46:58.013Z,96.20
2018-06-02T09:49:25.692Z,95.40
2018-06-02T09:51:53.547Z,96.10
2018-06-02T09:54:21.324Z,96.50
2018-06-02T09:56:49.101Z,96.70
2018-06-02T09:59:16.877Z,96.50
2018-06-02T10:01:44.580Z,97.60
2018-06-02T10:04:12.331Z,96.20
2018-06-02T10:06:40.306Z,95.70
2018-06-02T10:09:07.985Z,96.40
2018-06-02T10:11:35.785Z,96.20
2018-06-02T10:14:03.535Z,96.10
2018-06-02T10:16:31.356Z,95.20
2018-06-02T10:18:59.109Z,93.80
2018-06-02T10:21:26.749Z,94.80
2018-06-02T10:23:54.615Z,97.40
2018-06-02T10:26:22.280Z,96.20
2018-06-02T10:28:50.808Z,95.50
2018-06-02T10:31:18.508Z,95.50
2018-06-02T10:33:46.284Z,95.60
2018-06-02T10:36:14.036Z,97.20
2018-06-02T10:38:41.915Z,95.90
2018-06-02T10:41:09.896Z,94.10
2018-06-02T10:43:37.891Z,94.10
2018-06-02T10:46:05.970Z,93.80
2018-06-02T10:48:33.657Z,93.90
2018-06-02T10:51:01.411Z,94.10
2018-06-02T10:53:29.291Z,94.70
2018-06-02T10:55:57.272Z,93.80
2018-06-02T10:58:25.188Z,93.80
2018-06-02T11:00:52.929Z,93.70
2018-06-02T11:03:20.910Z,94.10
2018-06-02T11:05:48.895Z,93.80
2018-06-02T11:08:16.690Z,95.20
2018-06-02T11:10:44.348Z,95.40
2018-06-02T11:13:12.032Z,95.60
2018-06-02T11:15:39.706Z,95.30
2018-06-02T11:18:07.380Z,94.60
2018-06-02T11:20:35.456Z,95.20
2018-06-02T11:23:03.096Z,94.80
2018-06-02T11:25:30.812Z,95.00
2018-06-02T11:27:58.568Z,94.80
2018-06-02T11:30:26.446Z,94.30
2018-06-02T11:32:54.223Z,95.00
2018-06-02T11:35:21.999Z,94.90
2018-06-02T11:37:50.085Z,95.70
2018-06-02T11:40:18.167Z,94.40
2018-06-02T11:42:45.868Z,95.10
2018-06-02T11:45:13.636Z,94.40
2018-06-02T11:47:41.287Z,94.50
2018-06-02T11:50:08.984Z,94.60
2018-06-02T11:52:36.853Z,94.00
2018-06-02T11:55:04.641Z,94.30
2018-06-02T11:57:32.290Z,94.00
2018-06-02T12:00:00.168Z,94.10
2018-06-02T12:02:28.154Z,93.40
2018-06-02T12:04:56.650Z,92.00
2018-06-02T12:07:24.349Z,92.90
2018-06-02T12:09:52.915Z,94.40
2018-06-02T12:12:20.609Z,94.40
2018-06-02T12:14:48.270Z,93.90
2018-06-02T12:17:16.345Z,94.70
2018-06-02T12:19:44.125Z,93.80
2018-06-02T12:22:11.788Z,92.10
2018-06-02T12:24:39.495Z,93.40
2018-06-02T12:27:07.268Z,92.60
2018-06-02T12:29:35.022Z,93.90
2018-06-02T12:32:02.692Z,93.20
2018-06-02T12:34:30.516Z,92.40
2018-06-02T12:36:58.478Z,91.80
2018-06-02T12:39:26.126Z,92.30
2018-06-02T12:41:53.983Z,92.00
2018-06-02T12:44:21.616Z,93.10
2018-06-02T12:46:49.456Z,93.60
2018-06-02T12:49:17.232Z,93.00
2018-06-02T12:51:45.230Z,92.00
2018-06-02T12:54:12.885Z,91.90
2018-06-02T12:56:40.664Z,90.70
2018-06-02T12:59:08.296Z,91.30
2018-06-02T13:01:36.935Z,92.00
2018-06-02T13:04:04.710Z,92.00
2018-06-02T13:06:32.496Z,91.80
2018-06-02T13:09:00.267Z,91.70
2018-06-02T13:11:28.098Z,91.40
2018-06-02T13:13:56.110Z,91.30
2018-06-02T13:16:23.864Z,91.30
2018-06-02T13:18:52.316Z,91.10
2018-06-02T13:21:19.984Z,91.10
2018-06-02T13:23:47.743Z,90.70
2018-06-02T13:26:15.519Z,90.80
2018-06-02T13:28:43.293Z,90.60
2018-06-02T13:31:10.989Z,89.10
2018-06-02T13:33:38.657Z,90.10
2018-06-02T13:36:06.418Z,90.00
2018-06-02T13:38:34.197Z,90.50
2018-06-02T13:41:01.971Z,90.60
2018-06-02T13:43:29.849Z,90.80
2018-06-02T13:45:57.837Z,90.20
2018-06-02T13:48:26.881Z,90.80
2018-06-02T13:50:54.802Z,90.70
2018-06-02T13:53:22.598Z,90.80
2018-06-02T13:55:50.388Z,91.60
2018-06-02T13:58:18.146Z,91.40
2018-06-02T14:00:45.922Z,91.40
2018-06-02T14:03:13.701Z,91.20
2018-06-02T14:05:41.475Z,91.20
2018-06-02T14:08:09.251Z,90.20
2018-06-02T14:10:37.027Z,92.00
2018-06-02T14:13:04.684Z,91.90
2018-06-02T14:15:32.684Z,91.40
2018-06-02T14:18:00.481Z,94.50
2018-06-02T14:20:28.337Z,95.00
2018-06-02T14:22:56.113Z,94.90
2018-06-02T14:25:24.040Z,95.00
2018-06-02T14:27:51.790Z,94.40
2018-06-02T14:30:19.461Z,95.20
2018-06-02T14:32:47.321Z,95.00
2018-06-02T14:35:15.022Z,94.70
2018-06-02T14:37:42.874Z,94.30
2018-06-02T14:40:10.593Z,94.60
2018-06-02T14:42:38.348Z,93.80
2018-06-02T14:45:05.984Z,93.60
2018-06-02T14:47:33.777Z,93.10
2018-06-02T14:50:01.857Z,93.70
2018-06-02T14:52:29.740Z,93.10
2018-06-02T14:54:57.759Z,93.00
2018-06-02T14:57:25.674Z,92.90
2018-06-02T14:59:53.396Z,92.70
2018-06-02T15:02:21.146Z,91.90
2018-06-02T15:04:48.923Z,93.50
2018-06-02T15:07:16.905Z,93.60
2018-06-02T15:09:44.683Z,92.30
2018-06-02T15:12:12.461Z,92.60
2018-06-02T15:14:40.153Z,93.00
2018-06-02T15:17:08.011Z,93.30
2018-06-02T15:19:35.640Z,93.20
2018-06-02T15:22:03.304Z,93.90
2018-06-02T15:24:31.773Z,92.90
2018-06-02T15:26:59.761Z,92.90
2018-06-02T15:29:27.610Z,93.10
2018-06-02T15:31:55.569Z,93.20
2018-06-02T15:34:23.374Z,93.10
2018-06-02T15:36:51.017Z,93.60
2018-06-02T15:39:18.736Z,92.70
2018-06-02T15:41:47.241Z,92.50
2018-06-02T15:44:15.020Z,92.30
2018-06-02T15:46:42.676Z,92.30
2018-06-02T15:49:10.361Z,92.30
2018-06-02T15:51:38.046Z,92.40
2018-06-02T15:54:05.729Z,92.00
2018-06-02T15:56:33.478Z,92.30
2018-06-02T15:59:01.259Z,92.20
2018-06-02T16:01:29.141Z,91.80
2018-06-02T16:03:57.759Z,91.90
2018-06-02T16:06:26.229Z,92.20
2018-06-02T16:08:54.015Z,92.10
2018-06-02T16:11:21.657Z,92.30
2018-06-02T16:13:49.423Z,92.50
2018-06-02T16:16:17.073Z,92.20
2018-06-02T16:18:44.877Z,92.20
2018-06-02T16:21:12.654Z,91.80
2018-06-02T16:23:40.352Z,91.90
2018-06-02T16:26:08.203Z,91.30
2018-06-02T16:28:35.904Z,92.90
2018-06-02T16:31:03.657Z,92.60
2018-06-02T16:33:31.431Z,92.90
2018-06-02T16:35:59.361Z,94.10
2018-06-02T16:38:27.905Z,93.20
2018-06-02T16:40:56.008Z,91.70
2018-06-02T16:43:23.870Z,91.90
2018-06-02T16:45:51.743Z,93.10
2018-06-02T16:48:19.519Z,92.80
2018-06-02T16:50:47.425Z,93.70
2018-06-02T16:53:15.275Z,93.80
2018-06-02T16:55:43.060Z,92.50
2018-06-02T17:15:13.204Z,91.40
2018-06-02T17:17:42.304Z,93.20
2018-06-02T17:21:42.521Z,93.50
2018-06-02T17:26:40.508Z,93.80
2018-06-02T17:29:09.817Z,93.60
2018-06-02T17:31:39.037Z,94.80
2018-06-02T17:34:08.083Z,94.50
2018-06-02T17:36:37.093Z,95.70
2018-06-02T17:39:07.256Z,95.40
2018-06-02T17:41:36.320Z,96.50
2018-06-02T17:44:05.381Z,95.40
2018-06-02T17:46:34.520Z,95.30
2018-06-02T17:49:03.686Z,94.60
2018-06-02T17:51:32.807Z,95.00
2018-06-02T17:54:01.910Z,95.80
2018-06-02T17:56:30.964Z,95.90
2018-06-02T17:59:00.217Z,96.40
2018-06-02T18:01:29.400Z,96.60
2018-06-02T18:03:58.616Z,95.20
2018-06-02T18:06:27.813Z,96.90
2018-06-02T18:08:57.172Z,95.70
2018-06-02T18:11:26.387Z,97.20
2018-06-02T18:13:55.700Z,97.20
2018-06-02T18:16:24.861Z,96.50
2018-06-02T18:18:54.026Z,97.10
2018-06-02T18:21:23.121Z,97.00
2018-06-02T18:23:52.205Z,96.90
2018-06-02T18:26:21.432Z,97.00
2018-06-02T18:28:50.749Z,97.20
2018-06-02T18:31:19.920Z,97.40
2018-06-02T18:33:49.024Z,96.60
2018-06-02T18:36:18.281Z,98.10
2018-06-02T18:38:47.362Z,98.30
2018-06-02T18:41:16.701Z,97.40
2018-06-02T18:43:46.004Z,97.20
2018-06-02T18:46:15.441Z,98.20
2018-06-02T18:48:44.514Z,98.00
2018-06-02T18:51:13.632Z,98.60
2018-06-02T18:53:42.818Z,98.00
2018-06-02T18:56:12.174Z,97.20
2018-06-02T18:58:41.454Z,98.30
2018-06-02T19:01:10.909Z,98.10
2018-06-02T19:03:40.396Z,98.10
2018-06-02T19:06:09.508Z,98.30
2018-06-02T19:08:38.784Z,98.50
2018-06-02T19:11:08.141Z,98.20
2018-06-02T19:13:37.304Z,97.10
2018-06-02T19:16:06.659Z,98.50
2018-06-02T19:18:35.928Z,98.50
2018-06-02T19:21:05.096Z,98.80
2018-06-02T19:23:34.257Z,98.40
2018-06-02T19:26:03.557Z,99.30
2018-06-02T19:28:32.800Z,98.90
2018-06-02T19:31:01.985Z,98.30
2018-06-02T19:33:31.232Z,98.00
2018-06-02T19:36:00.297Z,98.10
2018-06-02T19:38:29.540Z,98.40
2018-06-02T19:40:58.765Z,98.10
2018-06-02T19:43:28.086Z,97.80
2018-06-02T19:45:57.240Z,98.20
2018-06-02T19:48:26.496Z,96.60
2018-06-02T19:50:55.548Z,98.90
2018-06-02T19:53:24.713Z,98.20
2018-06-02T19:55:53.920Z,98.70
2018-06-02T19:58:23.002Z,98.20
2018-06-02T20:00:52.341Z,97.30
2018-06-02T20:03:21.645Z,97.10
2018-06-02T20:05:51.125Z,96.70
2018-06-02T20:08:20.280Z,97.80
2018-06-02T20:10:49.353Z,97.00
2018-06-02T20:13:18.480Z,96.90
2018-06-02T20:15:47.564Z,98.80
2018-06-02T20:18:16.701Z,98.20
2018-06-02T20:20:45.989Z,98.40
2018-06-02T20:23:15.276Z,97.50
2018-06-02T20:25:44.265Z,96.90
2018-06-02T20:30:42.145Z,97.80
2018-06-02T20:33:11.246Z,97.50
2018-06-02T20:35:40.456Z,97.20
2018-06-02T20:38:09.632Z,97.10
2018-06-02T20:40:38.773Z,97.40
2018-06-02T20:43:07.980Z,97.50
2018-06-02T20:45:37.396Z,97.90
2018-06-02T20:48:06.712Z,97.70
2018-06-02T20:50:35.933Z,97.40
2018-06-02T20:53:05.199Z,97.70
2018-06-02T20:55:34.437Z,97.70
2018-06-02T20:58:03.621Z,97.80
2018-06-02T21:00:32.965Z,97.80
2018-06-02T21:03:02.228Z,98.40
2018-06-02T21:05:31.565Z,98.40
2018-06-02T21:08:00.751Z,98.20
2018-06-02T21:10:29.789Z,98.30
2018-06-02T21:12:58.988Z,98.30
2018-06-02T21:15:28.450Z,98.40
2018-06-02T21:17:57.485Z,98.60
2018-06-02T21:20:26.760Z,98.70
2018-06-02T21:22:55.968Z,98.50
2018-06-02T21:25:25.435Z,98.40
2018-06-02T21:27:54.999Z,98.30
2018-06-02T21:30:24.274Z,98.20
2018-06-02T21:32:53.523Z,98.40
2018-06-02T21:35:22.689Z,98.40
2018-06-02T21:37:52.021Z,98.70
2018-06-02T21:40:21.297Z,98.80
2018-06-02T21:42:50.731Z,98.90
2018-06-02T21:45:19.921Z,98.80
2018-06-02T21:47:49.273Z,98.50
2018-06-02T21:50:18.354Z,99.30
2018-06-02T21:52:47.495Z,99.30
2018-06-02T21:55:16.679Z,98.80
2018-06-02T21:57:46.017Z,99.40
2018-06-02T22:00:15.325Z,99.30
2018-06-02T22:02:44.744Z,98.90
2018-06-02T22:05:13.808Z,99.60
2018-06-02T22:07:43.376Z,99.10
2018-06-02T22:10:12.840Z,99.60
2018-06-02T22:12:42.113Z,99.30
2018-06-02T22:15:11.860Z,99.10
2018-06-02T22:17:41.138Z,99.70
2018-06-02T22:20:10.137Z,99.30
2018-06-02T22:22:39.313Z,98.90
2018-06-02T22:25:08.715Z,98.70
2018-06-02T22:27:37.828Z,98.70
2018-06-02T22:30:06.989Z,98.50
2018-06-02T22:32:36.144Z,98.80
2018-06-02T22:35:05.501Z,97.50
2018-06-02T22:37:34.685Z,98.30
2018-06-02T22:40:04.146Z,99.10
2018-06-02T22:42:33.419Z,98.30
2018-06-02T22:45:02.659Z,98.80
2018-06-02T22:47:31.813Z,98.30
2018-06-02T22:50:01.212Z,98.20
2018-06-02T22:52:30.443Z,98.30
2018-06-02T22:54:59.912Z,98.70
2018-06-02T22:57:29.313Z,98.80
2018-06-02T22:59:58.635Z,98.30
2018-06-02T23:02:27.829Z,98.70
2018-06-02T23:04:57.275Z,99.10
2018-06-02T23:07:26.641Z,98.10
2018-06-02T23:09:56.098Z,98.70
2018-06-02T23:12:25.292Z,99.70
2018-06-02T23:14:54.528Z,99.10
2018-06-02T23:17:23.695Z,98.80
2018-06-02T23:19:52.744Z,99.10
2018-06-02T23:22:33.745Z,98.90
2018-06-02T23:25:02.873Z,99.10
2018-06-02T23:27:31.954Z,99.20
2018-06-02T23:30:01.153Z,99.00
2018-06-02T23:32:30.505Z,98.60
2018-06-02T23:34:59.720Z,99.70
2018-06-02T23:37:28.917Z,99.50
2018-06-02T23:39:58.200Z,99.10
2018-06-02T23:42:27.756Z,99.60
2018-06-02T23:44:57.043Z,99.20
2018-06-02T23:47:26.281Z,98.90
2018-06-02T23:49:55.357Z,98.90
2018-06-02T23:52:24.589Z,98.80
2018-06-02T23:54:53.660Z,98.20
2018-06-02T23:57:23.023Z,98.90
2018-06-02T23:59:52.180Z,99.10
